Time;durP1;ratioP1;P1;durP2;ratioP2;P2;SDS_P1;SDS_P2;PMS_P1;PMS_P2;Temp;Humidity;BMP_temperature;BMP_pressure;BME280_temperature;BME280_humidity;BME280_pressure;Samples;Min_cycle;Max_cycle;Signal;HPM_P1;HPM_P2
2022/10/19 00:02:54;;;;;;;16.73;4.40;;;;;;;;;;21090340;28;20044;-70
2022/10/19 00:12:56;;;;;;;16.58;5.15;;;;;;;;;;21089295;28;20056;-71
2022/10/19 00:22:58;;;;;;;19.15;4.95;;;;;;;;;;21089139;28;20446;-70
2022/10/19 00:33:00;;;;;;;21.48;5.13;;;;;;;;;;21088398;28;20056;-72
2022/10/19 00:43:01;;;;;;;16.65;4.38;;;;;;;;;;21068568;28;20114;-72
2022/10/19 00:53:03;;;;;;;16.80;4.43;;;;;;;;;;21087161;28;20059;-70
2022/10/19 01:03:07;;;;;;;15.63;4.25;;;;;;;;;;21085503;28;20109;-71
2022/10/19 01:13:14;;;;;;;17.77;4.57;;;;;;;;;;21086565;28;20131;-69
2022/10/19 01:23:17;;;;;;;12.03;3.87;;;;;;;;;;21084687;28;20051;-62
2022/10/19 01:33:22;;;;;;;16.52;4.68;;;;;;;;;;21083697;28;20398;-63
2022/10/19 01:43:25;;;;;;;19.30;3.90;;;;;;;;;;21081960;28;20055;-70
2022/10/19 01:53:32;;;;;;;18.23;4.32;;;;;;;;;;21082387;28;20097;-66
2022/10/19 02:03:35;;;;;;;17.05;3.85;;;;;;;;;;21080835;28;20071;-62
2022/10/19 02:13:40;;;;;;;14.77;3.55;;;;;;;;;;21081693;28;20437;-71
2022/10/19 02:23:44;;;;;;;15.57;4.25;;;;;;;;;;21062217;28;20044;-71
2022/10/19 02:33:47;;;;;;;15.77;3.53;;;;;;;;;;21080311;28;20408;-71
2022/10/19 02:43:54;;;;;;;13.55;4.15;;;;;;;;;;21078904;28;20538;-64
2022/10/19 02:53:57;;;;;;;23.75;4.10;;;;;;;;;;21082789;28;20151;-63
2022/10/19 03:03:59;;;;;;;17.25;2.88;;;;;;;;;;21077530;28;20446;-62
2022/10/19 03:14:01;;;;;;;19.92;4.13;;;;;;;;;;21094409;28;20052;-69
2022/10/19 03:24:04;;;;;;;14.13;3.60;;;;;;;;;;21075494;28;20047;-63
2022/10/19 03:34:07;;;;;;;18.58;3.78;;;;;;;;;;21074486;28;20048;-64
2022/10/19 03:44:10;;;;;;;18.25;4.00;;;;;;;;;;21091719;28;20086;-61
2022/10/19 03:54:13;;;;;;;14.95;4.13;;;;;;;;;;21092379;28;20044;-62
2022/10/19 04:04:17;;;;;;;19.52;4.07;;;;;;;;;;21089780;28;20052;-70
2022/10/19 04:14:21;;;;;;;16.08;3.75;;;;;;;;;;21090164;28;20052;-70
2022/10/19 04:24:23;;;;;;;15.45;3.67;;;;;;;;;;21089762;28;20071;-68
2022/10/19 04:34:26;;;;;;;16.88;3.92;;;;;;;;;;21088573;28;20044;-60
2022/10/19 04:44:28;;;;;;;13.60;3.75;;;;;;;;;;21087124;28;20056;-63
2022/10/19 04:54:32;;;;;;;16.85;4.38;;;;;;;;;;21086369;28;20056;-69
2022/10/19 05:04:34;;;;;;;14.93;3.97;;;;;;;;;;21087180;28;20072;-69
2022/10/19 05:14:36;;;;;;;18.90;4.40;;;;;;;;;;21084999;28;20052;-68
2022/10/19 05:24:39;;;;;;;18.75;4.95;;;;;;;;;;21084920;28;20052;-61
2022/10/19 05:34:41;;;;;;;22.70;5.07;;;;;;;;;;21083401;28;20058;-63
2022/10/19 05:44:43;;;;;;;18.60;5.15;;;;;;;;;;21082937;28;20449;-64
2022/10/19 05:54:46;;;;;;;15.35;3.88;;;;;;;;;;21082260;28;20048;-61
2022/10/19 06:04:48;;;;;;;25.08;5.30;;;;;;;;;;21081156;28;20101;-68
2022/10/19 06:14:50;;;;;;;23.67;4.22;;;;;;;;;;21080650;28;20047;-70
2022/10/19 06:24:53;;;;;;;15.23;4.18;;;;;;;;;;21079974;28;20495;-61
2022/10/19 06:34:55;;;;;;;20.85;4.50;;;;;;;;;;21079131;28;20047;-71
2022/10/19 06:44:57;;;;;;;19.98;4.45;;;;;;;;;;21078672;28;20419;-70
2022/10/19 06:55:00;;;;;;;21.00;5.35;;;;;;;;;;21078991;28;20044;-62
2022/10/19 07:05:02;;;;;;;27.50;9.32;;;;;;;;;;21079263;28;20055;-64
2022/10/19 07:15:06;;;;;;;21.42;6.10;;;;;;;;;;21077995;28;20040;-64
2022/10/19 07:25:09;;;;;;;27.48;8.15;;;;;;;;;;21078125;28;20495;-65
2022/10/19 07:35:12;;;;;;;25.20;8.27;;;;;;;;;;21058881;28;20051;-64
2022/10/19 07:45:14;;;;;;;22.80;5.93;;;;;;;;;;21088908;28;20134;-65
2022/10/19 07:55:15;;;;;;;29.63;6.72;;;;;;;;;;21073215;28;20472;-65
2022/10/19 08:05:18;;;;;;;24.55;7.28;;;;;;;;;;21091746;28;20044;-70
2022/10/19 08:15:20;;;;;;;25.42;6.97;;;;;;;;;;21089968;28;20078;-70
2022/10/19 08:25:24;;;;;;;33.08;7.00;;;;;;;;;;21089324;28;20051;-68
2022/10/19 08:35:26;;;;;;;39.60;7.55;;;;;;;;;;21088187;28;20051;-70
2022/10/19 08:45:35;;;;;;;22.15;5.70;;;;;;;;;;21087393;28;20139;-69
2022/10/19 08:55:56;;;;;;;24.38;6.15;;;;;;;;;;21087585;28;20051;-68
2022/10/19 09:06:04;;;;;;;33.08;6.00;;;;;;;;;;21086598;28;20453;-65
2022/10/19 09:16:06;;;;;;;31.75;10.43;;;;;;;;;;21085549;28;20476;-68
2022/10/19 09:26:16;;;;;;;22.65;5.05;;;;;;;;;;21085625;28;20055;-67
2022/10/19 09:36:18;;;;;;;25.63;7.72;;;;;;;;;;21082830;28;20040;-67
2022/10/19 09:46:29;;;;;;;21.27;4.68;;;;;;;;;;21055525;28;20060;-68
2022/10/19 09:56:37;;;;;;;23.13;4.82;;;;;;;;;;21081148;28;20066;-65
2022/10/19 10:06:40;;;;;;;18.95;6.57;;;;;;;;;;21062376;28;20090;-70
2022/10/19 10:16:42;;;;;;;27.92;5.00;;;;;;;;;;21080629;28;20048;-66
2022/10/19 10:26:45;;;;;;;29.15;6.32;;;;;;;;;;21080508;28;20044;-65
2022/10/19 10:36:48;;;;;;;21.15;5.30;;;;;;;;;;21078504;28;20048;-67
2022/10/19 10:47:00;;;;;;;22.80;4.32;;;;;;;;;;21078017;28;20114;-66
2022/10/19 10:57:22;;;;;;;21.13;4.28;;;;;;;;;;21059322;28;20044;-65
2022/10/19 11:07:25;;;;;;;17.40;4.22;;;;;;;;;;21077345;28;20055;-63
2022/10/19 11:17:29;;;;;;;20.67;4.03;;;;;;;;;;21086241;28;20044;-63
2022/10/19 11:27:35;;;;;;;16.58;4.13;;;;;;;;;;21094357;28;20141;-64
2022/10/19 11:38:04;;;;;;;20.90;4.10;;;;;;;;;;21092897;28;20212;-64
2022/10/19 11:48:06;;;;;;;15.98;4.07;;;;;;;;;;21060503;28;20056;-66
2022/10/19 11:58:27;;;;;;;18.48;3.47;;;;;;;;;;21091737;28;20058;-64
2022/10/19 12:08:47;;;;;;;21.75;4.50;;;;;;;;;;21090130;28;20132;-68
2022/10/19 12:18:51;;;;;;;20.33;5.00;;;;;;;;;;21089626;28;20052;-63
2022/10/19 12:28:55;;;;;;;18.63;3.90;;;;;;;;;;21088250;28;20052;-65
2022/10/19 12:39:10;;;;;;;15.45;3.85;;;;;;;;;;21088947;28;20594;-63
2022/10/19 12:49:30;;;;;;;18.83;4.18;;;;;;;;;;21086896;28;20052;-71
2022/10/19 12:59:33;;;;;;;16.25;4.35;;;;;;;;;;21069302;28;20488;-65
2022/10/19 13:09:45;;;;;;;14.52;3.70;;;;;;;;;;21086092;28;20113;-65
2022/10/19 13:19:47;;;;;;;19.38;3.95;;;;;;;;;;21085461;28;20153;-63
2022/10/19 13:29:51;;;;;;;20.35;4.13;;;;;;;;;;21086881;28;20052;-66
2022/10/19 13:39:55;;;;;;;22.17;4.43;;;;;;;;;;21064358;28;20044;-66
2022/10/19 13:50:16;;;;;;;14.57;3.78;;;;;;;;;;21083179;28;20135;-64
2022/10/19 14:00:23;;;;;;;17.98;3.97;;;;;;;;;;21082859;28;20139;-65
2022/10/19 14:10:25;;;;;;;20.45;3.90;;;;;;;;;;21080868;28;20047;-66
2022/10/19 14:20:30;;;;;;;25.13;6.78;;;;;;;;;;21080335;28;20047;-67
2022/10/19 14:30:33;;;;;;;16.08;3.55;;;;;;;;;;21079317;28;20056;-62
2022/10/19 14:40:40;;;;;;;17.30;3.78;;;;;;;;;;21078667;28;20048;-65
2022/10/19 14:50:47;;;;;;;18.10;3.77;;;;;;;;;;21091236;28;20087;-66
2022/10/19 15:00:49;;;;;;;19.33;3.40;;;;;;;;;;21106018;28;20044;-71
2022/10/19 15:10:52;;;;;;;16.52;3.13;;;;;;;;;;21105548;28;20134;-63
2022/10/19 15:21:19;;;;;;;17.65;3.75;;;;;;;;;;21105710;28;20051;-62
2022/10/19 15:31:25;;;;;;;24.42;3.72;;;;;;;;;;21102023;28;20139;-62
2022/10/19 15:41:29;;;;;;;22.33;3.85;;;;;;;;;;21086978;28;20044;-69
2022/10/19 15:51:32;;;;;;;29.17;3.47;;;;;;;;;;21105370;28;20060;-63
2022/10/19 16:01:34;;;;;;;27.02;4.00;;;;;;;;;;21100306;28;20101;-67
2022/10/19 16:11:36;;;;;;;19.27;3.10;;;;;;;;;;21072266;28;20106;-62
2022/10/19 16:21:38;;;;;;;17.85;3.20;;;;;;;;;;21000822;28;20049;-66
2022/10/19 16:31:40;;;;;;;14.85;2.40;;;;;;;;;;21006014;28;20472;-61
2022/10/19 16:41:43;;;;;;;19.27;2.83;;;;;;;;;;21003686;28;20459;-60
2022/10/19 16:51:45;;;;;;;10.23;2.28;;;;;;;;;;20998552;28;20095;-61
2022/10/19 17:01:47;;;;;;;17.17;2.90;;;;;;;;;;20999615;28;20052;-62
2022/10/19 17:11:49;;;;;;;8.95;2.38;;;;;;;;;;20996927;28;20390;-64
2022/10/19 17:21:54;;;;;;;18.33;5.35;;;;;;;;;;21044418;28;20048;-62
2022/10/19 17:31:56;;;;;;;13.27;2.50;;;;;;;;;;21080978;28;20086;-68
2022/10/19 17:42:03;;;;;;;10.60;1.67;;;;;;;;;;21080696;28;20055;-65
2022/10/19 17:52:04;;;;;;;14.37;2.00;;;;;;;;;;21079484;28;20044;-63
2022/10/19 18:02:07;;;;;;;27.05;4.13;;;;;;;;;;21078089;28;20051;-61
2022/10/19 18:12:12;;;;;;;13.38;2.15;;;;;;;;;;21078025;28;20052;-64
2022/10/19 18:22:14;;;;;;;12.65;2.50;;;;;;;;;;21076470;28;20051;-60
2022/10/19 18:32:16;;;;;;;15.07;2.30;;;;;;;;;;21077867;28;20044;-67
2022/10/19 18:42:18;;;;;;;12.85;2.85;;;;;;;;;;21078386;28;20162;-60
2022/10/19 18:52:19;;;;;;;5.03;1.33;;;;;;;;;;21079100;28;20044;-59
2022/10/19 19:02:21;;;;;;;9.85;1.52;;;;;;;;;;21077808;28;20040;-59
2022/10/19 19:12:23;;;;;;;10.15;1.60;;;;;;;;;;21077662;28;20105;-60
2022/10/19 19:22:26;;;;;;;5.40;1.67;;;;;;;;;;21077141;28;20135;-61
2022/10/19 19:32:27;;;;;;;7.40;1.73;;;;;;;;;;21058892;28;20044;-59
2022/10/19 19:42:29;;;;;;;7.75;1.65;;;;;;;;;;21090660;28;20059;-60
2022/10/19 19:52:31;;;;;;;9.77;1.98;;;;;;;;;;21092575;28;20102;-58
2022/10/19 20:02:36;;;;;;;13.43;1.90;;;;;;;;;;21090586;28;20048;-59
2022/10/19 20:12:37;;;;;;;7.28;1.55;;;;;;;;;;21090667;28;20056;-59
2022/10/19 20:22:44;;;;;;;9.00;1.42;;;;;;;;;;21089221;28;20048;-61
2022/10/19 20:32:46;;;;;;;11.63;2.10;;;;;;;;;;21088512;28;20056;-61
2022/10/19 20:42:48;;;;;;;10.00;1.92;;;;;;;;;;21087389;28;20052;-61
2022/10/19 20:52:50;;;;;;;9.98;1.50;;;;;;;;;;21087238;28;20067;-60
2022/10/19 21:02:52;;;;;;;9.70;1.55;;;;;;;;;;21086328;28;20048;-59
2022/10/19 21:12:54;;;;;;;8.18;1.60;;;;;;;;;;21085257;28;20063;-60
2022/10/19 21:22:57;;;;;;;6.03;1.52;;;;;;;;;;21084581;28;20044;-61
2022/10/19 21:32:59;;;;;;;8.18;1.30;;;;;;;;;;21084855;28;20469;-59
2022/10/19 21:43:01;;;;;;;7.75;1.23;;;;;;;;;;21084053;28;20448;-63
2022/10/19 21:53:03;;;;;;;8.68;1.40;;;;;;;;;;21083125;28;20059;-61
2022/10/19 22:03:05;;;;;;;6.00;1.25;;;;;;;;;;21080816;28;20104;-60
2022/10/19 22:13:07;;;;;;;8.23;1.33;;;;;;;;;;21080282;28;20090;-59
2022/10/19 22:23:10;;;;;;;8.23;1.65;;;;;;;;;;21080432;28;20048;-63
2022/10/19 22:33:13;;;;;;;5.70;1.50;;;;;;;;;;21080071;28;20476;-59
2022/10/19 22:43:14;;;;;;;7.18;0.98;;;;;;;;;;21078593;28;20092;-59
2022/10/19 22:53:16;;;;;;;8.05;1.63;;;;;;;;;;21060178;28;20062;-58
2022/10/19 23:03:18;;;;;;;6.43;1.48;;;;;;;;;;21070790;28;20088;-59
2022/10/19 23:13:20;;;;;;;5.28;1.52;;;;;;;;;;21070213;28;20086;-60
2022/10/19 23:23:23;;;;;;;7.40;1.70;;;;;;;;;;21094508;28;20047;-62
2022/10/19 23:33:25;;;;;;;7.75;2.00;;;;;;;;;;21075950;28;20080;-60
2022/10/19 23:43:27;;;;;;;7.40;1.55;;;;;;;;;;21092864;28;20184;-59
2022/10/19 23:53:30;;;;;;;6.07;1.70;;;;;;;;;;21092719;28;20439;-59
